createdAt,value
2017-04-18T03:00:54.869Z,19.54
2017-04-18T03:01:20.547Z,19.65
2017-04-18T03:01:46.114Z,19.57
2017-04-18T03:02:11.684Z,19.63
2017-04-18T03:02:37.334Z,19.6
2017-04-18T03:03:02.923Z,19.61
2017-04-18T03:03:28.471Z,19.68
2017-04-18T03:03:54.030Z,19.63
2017-04-18T03:04:19.689Z,19.65
2017-04-18T03:04:45.239Z,19.61
2017-04-18T03:05:10.783Z,19.65
2017-04-18T03:05:36.336Z,19.61
2017-04-18T03:06:01.892Z,19.66
2017-04-18T03:06:27.453Z,19.65
2017-04-18T03:06:53.004Z,19.65
2017-04-18T03:07:18.551Z,19.63
2017-04-18T03:07:44.099Z,19.6
2017-04-18T03:08:09.661Z,19.66
2017-04-18T03:08:35.235Z,19.68
2017-04-18T03:09:00.791Z,19.65
2017-04-18T03:09:26.353Z,19.58
2017-04-18T03:09:51.904Z,19.65
2017-04-18T03:10:17.484Z,19.66
2017-04-18T03:10:43.051Z,19.65
2017-04-18T03:11:08.636Z,19.61
2017-04-18T03:11:34.178Z,19.6
2017-04-18T03:11:59.763Z,19.63
2017-04-18T03:12:25.317Z,19.6
2017-04-18T03:12:50.869Z,19.63
2017-04-18T03:13:16.431Z,19.65
2017-04-18T03:13:42.021Z,19.65
2017-04-18T03:14:07.592Z,19.57
2017-04-18T03:14:33.206Z,19.54
2017-04-18T03:14:58.766Z,19.57
2017-04-18T03:15:24.417Z,19.6
2017-04-18T03:15:49.984Z,19.6
2017-04-18T03:16:15.621Z,19.58
2017-04-18T03:16:41.209Z,19.66
2017-04-18T03:17:06.850Z,19.61
2017-04-18T03:17:32.417Z,19.63
2017-04-18T03:17:57.986Z,19.68
2017-04-18T03:18:23.549Z,19.65
2017-04-18T03:18:49.112Z,19.6
2017-04-18T03:19:14.674Z,19.65
2017-04-18T03:19:40.263Z,19.55
2017-04-18T03:20:05.810Z,19.61
2017-04-18T03:20:31.400Z,19.66
2017-04-18T03:20:56.939Z,19.57
2017-04-18T03:21:22.623Z,19.6
2017-04-18T03:21:48.179Z,19.57
2017-04-18T03:22:13.741Z,19.5
2017-04-18T03:22:39.449Z,19.57
2017-04-18T03:23:05.015Z,19.6
2017-04-18T03:23:30.582Z,19.65
2017-04-18T03:23:56.338Z,19.53
2017-04-18T03:24:21.913Z,19.58
2017-04-18T03:24:47.474Z,19.65
2017-04-18T03:25:13.034Z,19.66
2017-04-18T03:25:38.624Z,19.57
2017-04-18T03:26:04.180Z,19.61
2017-04-18T03:26:29.741Z,19.58
2017-04-18T03:26:55.312Z,19.66
2017-04-18T03:27:20.949Z,19.66
2017-04-18T03:27:46.513Z,19.68
2017-04-18T03:28:12.080Z,19.65
2017-04-18T03:28:37.627Z,19.66
2017-04-18T03:29:03.193Z,19.66
2017-04-18T03:29:28.836Z,19.65
2017-04-18T03:29:54.604Z,19.6
2017-04-18T03:30:20.162Z,19.61
2017-04-18T03:30:45.725Z,19.65
2017-04-18T03:31:11.310Z,19.61
2017-04-18T03:31:36.879Z,19.63
2017-04-18T03:32:02.425Z,19.48
2017-04-18T03:32:27.983Z,19.57
2017-04-18T03:32:53.552Z,19.53
2017-04-18T03:33:19.222Z,19.65
2017-04-18T03:33:44.775Z,19.53
2017-04-18T03:34:10.346Z,19.61
2017-04-18T03:34:35.931Z,19.58
2017-04-18T03:35:01.634Z,19.65
2017-04-18T03:35:27.193Z,19.55
2017-04-18T03:35:52.770Z,19.61
2017-04-18T03:36:18.352Z,19.6
2017-04-18T03:36:43.989Z,19.55
2017-04-18T03:37:09.579Z,19.54
2017-04-18T03:37:35.186Z,19.54
2017-04-18T03:38:00.761Z,19.53
2017-04-18T03:38:26.343Z,19.61
2017-04-18T03:38:51.933Z,19.53
2017-04-18T03:39:17.627Z,19.55
2017-04-18T03:39:43.187Z,19.51
2017-04-18T03:40:08.840Z,19.48
2017-04-18T03:40:34.403Z,19.57
2017-04-18T03:40:59.964Z,19.55
2017-04-18T03:41:25.594Z,19.58
2017-04-18T03:41:51.172Z,19.51
2017-04-18T03:42:16.775Z,19.57
2017-04-18T03:42:42.356Z,19.54
2017-04-18T03:43:07.917Z,19.55
2017-04-18T03:43:33.484Z,19.58
2017-04-18T03:43:59.063Z,19.58
2017-04-18T03:44:24.661Z,19.5
2017-04-18T03:44:50.234Z,19.57
2017-04-18T03:45:15.864Z,19.6
2017-04-18T03:45:41.437Z,19.68
2017-04-18T03:46:06.991Z,19.61
2017-04-18T03:46:32.552Z,19.58
2017-04-18T03:46:58.110Z,19.63
2017-04-18T03:47:23.686Z,19.6
2017-04-18T03:47:49.244Z,19.53
2017-04-18T03:48:14.816Z,19.57
2017-04-18T03:48:40.372Z,19.51
2017-04-18T03:49:05.941Z,19.55
2017-04-18T03:49:31.555Z,19.55
2017-04-18T03:49:57.115Z,19.57
2017-04-18T03:50:22.659Z,19.58
2017-04-18T03:50:48.387Z,19.53
2017-04-18T03:51:13.963Z,19.54
2017-04-18T03:51:39.522Z,19.51
2017-04-18T03:52:05.154Z,19.5
2017-04-18T03:52:30.733Z,19.55
2017-04-18T03:52:56.291Z,19.53
2017-04-18T03:53:21.952Z,19.5
2017-04-18T03:53:47.578Z,19.53
2017-04-18T03:54:13.151Z,19.55
2017-04-18T03:54:38.716Z,19.51
2017-04-18T03:55:04.290Z,19.55
2017-04-18T03:55:29.861Z,19.48
2017-04-18T03:55:55.434Z,19.51
2017-04-18T03:56:21.002Z,19.55
2017-04-18T03:56:46.573Z,19.57
2017-04-18T03:57:12.154Z,19.53
2017-04-18T03:57:37.715Z,19.55
2017-04-18T03:58:03.296Z,19.51
2017-04-18T03:58:28.858Z,19.51
2017-04-18T03:58:54.431Z,19.48
2017-04-18T03:59:20.053Z,19.51
2017-04-18T03:59:45.627Z,19.53
2017-04-18T04:00:11.184Z,19.54
2017-04-18T04:00:36.747Z,19.51
2017-04-18T04:01:02.312Z,19.5
2017-04-18T04:01:27.952Z,19.53
2017-04-18T04:01:53.521Z,19.55
2017-04-18T04:02:19.174Z,19.51
2017-04-18T04:02:44.784Z,19.53
2017-04-18T04:03:10.354Z,19.55
2017-04-18T04:03:35.925Z,19.54
2017-04-18T04:04:01.495Z,19.55
2017-04-18T04:04:27.062Z,19.5
2017-04-18T04:04:52.614Z,19.5
2017-04-18T04:05:18.180Z,19.47
2017-04-18T04:05:43.748Z,19.53
2017-04-18T04:06:09.307Z,19.57
2017-04-18T04:06:34.863Z,19.51
2017-04-18T04:07:00.431Z,19.53
2017-04-18T04:07:25.983Z,19.51
2017-04-18T04:07:51.541Z,19.5
2017-04-18T04:08:17.123Z,19.55
2017-04-18T04:08:42.716Z,19.55
2017-04-18T04:09:08.284Z,19.53
2017-04-18T04:09:33.928Z,19.54
2017-04-18T04:09:59.532Z,19.51
2017-04-18T04:10:25.133Z,19.54
2017-04-18T04:10:50.704Z,19.53
2017-04-18T04:11:16.289Z,19.5
2017-04-18T04:11:41.884Z,19.53
2017-04-18T04:12:07.445Z,19.6
2017-04-18T04:12:33.071Z,19.55
2017-04-18T04:12:58.712Z,19.57
2017-04-18T04:13:24.261Z,19.47
2017-04-18T04:13:49.847Z,19.51
2017-04-18T04:14:15.385Z,19.57
2017-04-18T04:14:40.990Z,19.57
2017-04-18T04:15:06.563Z,19.53
2017-04-18T04:15:32.135Z,19.53
2017-04-18T04:15:57.693Z,19.55
2017-04-18T04:16:23.263Z,19.57
2017-04-18T04:16:48.890Z,19.53
2017-04-18T04:17:14.438Z,19.51
2017-04-18T04:17:40.035Z,19.55
2017-04-18T04:18:05.613Z,19.51
2017-04-18T04:18:31.194Z,19.48
2017-04-18T04:18:56.763Z,19.51
2017-04-18T04:19:22.354Z,19.46
2017-04-18T04:19:47.902Z,19.53
2017-04-18T04:20:13.460Z,19.48
2017-04-18T04:21:01.647Z,19.5
2017-04-18T04:21:27.223Z,19.47
2017-04-18T04:21:52.775Z,19.47
2017-04-18T04:22:18.354Z,19.5
2017-04-18T04:22:43.914Z,19.53
2017-04-18T04:23:09.544Z,19.55
2017-04-18T04:23:35.180Z,19.57
2017-04-18T04:24:00.758Z,19.54
2017-04-18T04:24:26.366Z,19.54
2017-04-18T04:24:51.903Z,19.53
2017-04-18T04:25:17.474Z,19.54
2017-04-18T04:25:43.027Z,19.53
2017-04-18T04:26:08.708Z,19.57
2017-04-18T04:26:34.280Z,19.55
2017-04-18T04:26:59.839Z,19.53
2017-04-18T04:27:25.389Z,19.66
2017-04-18T04:27:50.952Z,19.65
2017-04-18T04:28:16.564Z,19.57
2017-04-18T04:28:42.143Z,19.58
2017-04-18T04:29:07.692Z,19.58
2017-04-18T04:29:33.257Z,19.66
2017-04-18T04:29:58.809Z,19.55
2017-04-18T04:30:24.384Z,19.54
2017-04-18T04:30:50.071Z,19.54
2017-04-18T04:31:15.639Z,19.58
2017-04-18T04:31:41.210Z,19.58
2017-04-18T04:32:06.769Z,19.57
2017-04-18T04:32:32.342Z,19.53
2017-04-18T04:32:57.899Z,19.63
2017-04-18T04:33:23.475Z,19.6
2017-04-18T04:33:49.025Z,19.6
2017-04-18T04:34:14.590Z,19.63
2017-04-18T04:34:40.124Z,19.65
2017-04-18T04:35:05.690Z,19.58
2017-04-18T04:35:31.235Z,19.65
2017-04-18T04:35:56.790Z,19.57
2017-04-18T04:36:22.335Z,19.5
2017-04-18T04:36:47.885Z,19.57
2017-04-18T04:37:13.433Z,19.55
2017-04-18T04:37:38.984Z,19.54
2017-04-18T04:38:04.566Z,19.51
2017-04-18T04:38:30.124Z,19.43
2017-04-18T04:38:55.661Z,19.48
2017-04-18T04:39:21.214Z,19.48
2017-04-18T04:39:46.780Z,19.54
2017-04-18T04:40:12.345Z,19.46
2017-04-18T04:40:37.909Z,19.54
2017-04-18T04:41:03.484Z,19.48
2017-04-18T04:41:29.087Z,19.54
2017-04-18T04:41:54.734Z,19.53
2017-04-18T04:42:20.315Z,19.53
2017-04-18T04:42:45.881Z,19.46
2017-04-18T04:43:11.453Z,19.47
2017-04-18T04:43:37.016Z,19.47
2017-04-18T04:44:02.593Z,19.5
2017-04-18T04:44:28.154Z,19.5
2017-04-18T04:44:53.729Z,19.46
2017-04-18T04:45:19.304Z,19.48
2017-04-18T04:45:44.922Z,19.51
2017-04-18T04:46:10.503Z,19.43
2017-04-18T04:46:36.065Z,19.48
2017-04-18T04:47:01.703Z,19.46
2017-04-18T04:47:27.264Z,19.47
2017-04-18T04:47:52.843Z,19.48
2017-04-18T04:48:18.414Z,19.42
2017-04-18T04:48:43.983Z,19.5
2017-04-18T04:49:09.547Z,19.53
2017-04-18T04:49:35.113Z,19.48
2017-04-18T04:50:00.697Z,19.5
2017-04-18T04:50:26.279Z,19.46
2017-04-18T04:50:51.884Z,19.48
2017-04-18T04:51:17.445Z,19.47
2017-04-18T04:51:43.010Z,19.47
2017-04-18T04:52:08.693Z,19.46
2017-04-18T04:52:34.249Z,19.46
2017-04-18T04:52:59.810Z,19.42
2017-04-18T04:53:25.395Z,19.46
2017-04-18T04:53:50.962Z,19.4
2017-04-18T04:54:16.505Z,19.53
2017-04-18T04:54:42.131Z,19.46
2017-04-18T04:55:07.683Z,19.5
2017-04-18T04:55:33.250Z,19.48
2017-04-18T04:55:58.881Z,19.46
2017-04-18T04:56:24.431Z,19.5
2017-04-18T04:56:49.960Z,19.54
2017-04-18T04:57:15.504Z,19.53
2017-04-18T04:57:41.069Z,19.53
2017-04-18T04:58:06.650Z,19.48
2017-04-18T04:58:32.220Z,19.54
2017-04-18T04:58:57.878Z,19.48
2017-04-18T04:59:23.431Z,19.51
2017-04-18T04:59:48.982Z,19.5
2017-04-18T05:00:14.567Z,19.53
2017-04-18T05:00:40.130Z,19.53
2017-04-18T05:01:05.716Z,19.54
2017-04-18T05:01:31.291Z,19.51
2017-04-18T05:01:56.856Z,19.53
2017-04-18T05:02:22.413Z,19.5
2017-04-18T05:02:47.976Z,19.5
2017-04-18T05:03:13.569Z,19.51
2017-04-18T05:03:39.140Z,19.58
2017-04-18T05:04:04.695Z,19.51
2017-04-18T05:04:30.252Z,19.55
2017-04-18T05:04:55.811Z,19.58
2017-04-18T05:05:21.383Z,19.58
2017-04-18T05:05:46.933Z,19.55
2017-04-18T05:06:12.494Z,19.48
2017-04-18T05:06:38.079Z,19.53
2017-04-18T05:07:03.722Z,19.48
2017-04-18T05:07:29.285Z,19.48
2017-04-18T05:07:54.845Z,19.48
2017-04-18T05:08:20.445Z,19.54
2017-04-18T05:08:46.033Z,19.46
2017-04-18T05:09:11.624Z,19.46
2017-04-18T05:09:37.189Z,19.5
2017-04-18T05:10:02.784Z,19.48
2017-04-18T05:10:28.368Z,19.55
2017-04-18T05:10:53.952Z,19.53
2017-04-18T05:11:19.510Z,19.5
2017-04-18T05:11:45.079Z,19.43
2017-04-18T05:12:10.666Z,19.48
2017-04-18T05:12:36.241Z,19.51
2017-04-18T05:13:01.813Z,19.39
2017-04-18T05:13:27.386Z,19.43
2017-04-18T05:13:52.951Z,19.46
2017-04-18T05:14:18.589Z,19.33
2017-04-18T05:14:44.152Z,19.42
2017-04-18T05:15:09.710Z,19.47
2017-04-18T05:15:35.333Z,19.38
2017-04-18T05:16:00.939Z,19.43
2017-04-18T05:16:26.494Z,19.46
2017-04-18T05:16:52.049Z,19.42
2017-04-18T05:17:17.603Z,19.51
2017-04-18T05:17:43.154Z,19.43
2017-04-18T05:18:08.720Z,19.36
2017-04-18T05:18:34.323Z,19.53
2017-04-18T05:18:59.900Z,19.42
2017-04-18T05:19:25.483Z,19.4
2017-04-18T05:19:51.045Z,19.38
2017-04-18T05:20:16.613Z,19.51
2017-04-18T05:20:42.193Z,19.47
2017-04-18T05:21:07.771Z,19.38
2017-04-18T05:21:33.350Z,19.53
2017-04-18T05:21:58.912Z,19.43
2017-04-18T05:22:24.484Z,19.51
2017-04-18T05:22:50.046Z,19.42
2017-04-18T05:23:15.694Z,19.5
2017-04-18T05:23:41.274Z,19.46
2017-04-18T05:24:06.849Z,19.46
2017-04-18T05:24:32.414Z,19.46
2017-04-18T05:24:57.991Z,19.42
2017-04-18T05:25:23.570Z,19.39
2017-04-18T05:26:32.385Z,19.42
2017-04-18T05:26:57.950Z,19.48
2017-04-18T05:27:23.508Z,19.46
2017-04-18T05:27:49.071Z,19.46
2017-04-18T05:28:14.626Z,19.46
2017-04-18T05:28:40.209Z,19.46
2017-04-18T05:29:05.800Z,19.42
2017-04-18T05:29:31.414Z,19.33
2017-04-18T05:29:56.993Z,19.42
2017-04-18T05:30:22.556Z,19.38
2017-04-18T05:30:48.124Z,19.48
2017-04-18T05:31:13.757Z,19.4
2017-04-18T05:31:39.443Z,19.35
2017-04-18T05:32:05.013Z,19.42
2017-04-18T05:32:30.584Z,19.39
2017-04-18T05:32:56.148Z,19.38
2017-04-18T05:33:21.794Z,19.35
2017-04-18T05:33:47.374Z,19.4
2017-04-18T05:34:12.931Z,19.36
2017-04-18T05:34:38.510Z,19.42
2017-04-18T05:35:04.078Z,19.54
2017-04-18T05:35:29.641Z,19.38
2017-04-18T05:35:55.213Z,19.51
2017-04-18T05:36:20.770Z,19.38
2017-04-18T05:36:46.411Z,19.43
2017-04-18T05:37:11.975Z,19.38
2017-04-18T05:37:37.554Z,19.43
2017-04-18T05:38:03.122Z,19.42
2017-04-18T05:38:28.699Z,19.39
2017-04-18T05:38:54.261Z,19.48
2017-04-18T05:39:19.835Z,19.33
2017-04-18T05:39:45.431Z,19.43
2017-04-18T05:40:11.005Z,19.46
2017-04-18T05:40:36.559Z,19.42
2017-04-18T05:41:02.134Z,19.47
2017-04-18T05:41:27.694Z,19.48
2017-04-18T05:41:53.255Z,19.43
2017-04-18T05:42:18.823Z,19.53
2017-04-18T05:42:44.381Z,19.4
2017-04-18T05:43:09.940Z,19.42
2017-04-18T05:43:35.505Z,19.55
2017-04-18T05:44:01.073Z,19.4
2017-04-18T05:44:26.698Z,19.46
2017-04-18T05:44:52.265Z,19.43
2017-04-18T05:45:17.834Z,19.4
2017-04-18T05:45:43.481Z,19.51
2017-04-18T05:46:09.127Z,19.48
2017-04-18T05:46:34.691Z,19.43
2017-04-18T05:47:00.256Z,19.46
2017-04-18T05:47:25.944Z,19.42
2017-04-18T05:47:51.513Z,19.38
2017-04-18T05:48:17.108Z,19.53
2017-04-18T05:48:42.741Z,19.48
2017-04-18T05:49:08.314Z,19.46
2017-04-18T05:49:33.875Z,19.39
2017-04-18T05:49:59.617Z,19.48
2017-04-18T05:50:25.184Z,19.47
2017-04-18T05:50:50.756Z,19.39
2017-04-18T05:51:16.398Z,19.42
2017-04-18T05:51:41.981Z,19.42
2017-04-18T05:52:07.540Z,19.43
2017-04-18T05:52:33.090Z,19.47
2017-04-18T05:52:58.827Z,19.53
2017-04-18T05:53:24.379Z,19.36
2017-04-18T05:53:49.945Z,19.39
2017-04-18T05:54:15.575Z,19.53
2017-04-18T05:54:41.130Z,19.42
2017-04-18T05:55:06.692Z,19.48
2017-04-18T05:55:32.424Z,19.46
2017-04-18T05:55:57.988Z,19.38
2017-04-18T05:56:23.545Z,19.42
2017-04-18T05:57:21.976Z,19.48
2017-04-18T05:57:47.535Z,19.32
2017-04-18T05:58:13.104Z,19.36
2017-04-18T05:58:38.661Z,19.47
2017-04-18T05:59:04.215Z,19.42
2017-04-18T05:59:29.778Z,19.43
2017-04-18T05:59:55.382Z,19.42
2017-04-18T06:00:20.964Z,19.42
2017-04-18T06:01:29.447Z,19.43
2017-04-18T06:01:55.096Z,19.43
2017-04-18T06:02:20.667Z,19.42
2017-04-18T06:02:46.226Z,19.38
2017-04-18T06:03:11.794Z,19.48
2017-04-18T06:03:37.369Z,19.46
2017-04-18T06:04:03.025Z,19.46
2017-04-18T06:04:28.584Z,19.4
2017-04-18T06:04:54.123Z,19.39
2017-04-18T06:05:19.695Z,19.47
2017-04-18T06:05:45.264Z,19.42
2017-04-18T06:06:10.836Z,19.36
2017-04-18T06:06:36.422Z,19.31
2017-04-18T06:07:01.991Z,19.42
2017-04-18T06:07:27.546Z,19.46
2017-04-18T06:07:53.128Z,19.46
2017-04-18T06:08:18.683Z,19.35
2017-04-18T06:08:44.327Z,19.46
2017-04-18T06:09:09.922Z,19.4
2017-04-18T06:09:35.475Z,19.46
2017-04-18T06:10:01.044Z,19.42
2017-04-18T06:10:26.611Z,19.36
2017-04-18T06:10:52.180Z,19.48
2017-04-18T06:11:17.739Z,19.46
2017-04-18T06:11:43.317Z,19.43
2017-04-18T06:12:08.881Z,19.38
2017-04-18T06:12:34.431Z,19.43
2017-04-18T06:13:00.113Z,19.39
2017-04-18T06:13:25.683Z,19.42
2017-04-18T06:13:51.272Z,19.4
2017-04-18T06:14:16.908Z,19.42
2017-04-18T06:14:42.464Z,19.36
2017-04-18T06:15:08.053Z,19.42
2017-04-18T06:15:33.645Z,19.38
2017-04-18T06:15:59.750Z,19.39
2017-04-18T06:16:25.454Z,19.33
2017-04-18T06:16:51.025Z,19.33
2017-04-18T06:17:16.609Z,19.4
2017-04-18T06:17:42.207Z,19.31
2017-04-18T06:18:07.867Z,19.4
2017-04-18T06:18:33.458Z,19.38
2017-04-18T06:18:59.038Z,19.32
2017-04-18T06:19:24.585Z,19.4
2017-04-18T06:19:50.148Z,19.39
2017-04-18T06:20:15.711Z,19.43
2017-04-18T06:20:41.284Z,19.33
2017-04-18T06:21:06.986Z,19.4
2017-04-18T06:21:32.556Z,19.4
2017-04-18T06:21:58.135Z,19.35
2017-04-18T06:22:23.822Z,19.36
2017-04-18T06:22:49.370Z,19.4
2017-04-18T06:23:14.934Z,19.36
2017-04-18T06:23:40.539Z,19.39
2017-04-18T06:24:06.160Z,19.36
2017-04-18T06:24:31.764Z,19.38
2017-04-18T06:24:57.333Z,19.28
2017-04-18T06:25:23.021Z,19.39
2017-04-18T06:25:48.578Z,19.42
2017-04-18T06:26:14.165Z,19.39
2017-04-18T06:26:39.755Z,19.35
2017-04-18T06:27:05.297Z,19.39
2017-04-18T06:27:30.847Z,19.4
2017-04-18T06:27:56.400Z,19.38
2017-04-18T06:28:22.022Z,19.36
2017-04-18T06:28:47.610Z,19.32
2017-04-18T06:29:13.188Z,19.33
2017-04-18T06:29:38.747Z,19.33
2017-04-18T06:30:04.319Z,19.35
2017-04-18T06:30:29.950Z,19.32
2017-04-18T06:30:55.516Z,19.4
2017-04-18T06:31:21.101Z,19.35
2017-04-18T06:31:46.834Z,19.4
2017-04-18T06:32:12.394Z,19.36
2017-04-18T06:32:37.942Z,19.43
2017-04-18T06:33:03.583Z,19.42
2017-04-18T06:33:29.156Z,19.35
2017-04-18T06:33:54.727Z,19.39
2017-04-18T06:34:20.328Z,19.32
2017-04-18T06:34:46.075Z,19.33
2017-04-18T06:35:11.654Z,19.42
2017-04-18T06:35:37.224Z,19.39
2017-04-18T06:36:02.809Z,19.31
2017-04-18T06:36:28.385Z,19.39
2017-04-18T06:36:53.954Z,19.31
2017-04-18T06:37:19.512Z,19.33
2017-04-18T06:37:45.079Z,19.32
2017-04-18T06:38:10.627Z,19.32
2017-04-18T06:38:36.214Z,19.31
2017-04-18T06:39:01.775Z,19.32
2017-04-18T06:39:27.362Z,19.32
2017-04-18T06:39:53.016Z,19.32
2017-04-18T06:40:18.604Z,19.38
2017-04-18T06:40:44.191Z,19.39
2017-04-18T06:41:09.842Z,19.32
2017-04-18T06:41:35.423Z,19.32
2017-04-18T06:42:00.991Z,19.31
2017-04-18T06:42:26.647Z,19.29
2017-04-18T06:42:52.232Z,19.4
2017-04-18T06:43:17.812Z,19.38
2017-04-18T06:43:43.396Z,19.35
2017-04-18T06:44:08.975Z,19.28
2017-04-18T06:44:34.541Z,19.29
2017-04-18T06:45:00.187Z,19.39
2017-04-18T06:45:25.794Z,19.33
2017-04-18T06:45:51.367Z,19.32
2017-04-18T06:46:16.924Z,19.42
2017-04-18T06:46:42.489Z,19.36
2017-04-18T06:47:08.130Z,19.32
2017-04-18T06:47:33.746Z,19.39
2017-04-18T06:47:59.322Z,19.35
2017-04-18T06:48:24.893Z,19.4
2017-04-18T06:48:50.465Z,19.36
2017-04-18T06:49:16.043Z,19.33
2017-04-18T06:49:41.594Z,19.28
2017-04-18T06:50:07.190Z,19.39
2017-04-18T06:50:32.750Z,19.33
2017-04-18T06:50:58.344Z,19.36
2017-04-18T06:51:24.057Z,19.32
2017-04-18T06:51:49.683Z,19.33
2017-04-18T06:52:15.289Z,19.33
2017-04-18T06:52:40.838Z,19.42
2017-04-18T06:53:06.440Z,19.38
2017-04-18T06:53:31.994Z,19.39
2017-04-18T06:53:57.539Z,19.33
2017-04-18T06:54:23.119Z,19.39
2017-04-18T06:54:48.683Z,19.32
2017-04-18T06:55:14.278Z,19.33
2017-04-18T06:55:39.842Z,19.31
2017-04-18T06:56:05.398Z,19.36
2017-04-18T06:56:30.941Z,19.4
2017-04-18T06:56:56.540Z,19.32
2017-04-18T06:57:22.174Z,19.32
2017-04-18T06:57:47.758Z,19.4
2017-04-18T06:58:13.341Z,19.31
2017-04-18T06:58:38.943Z,19.39
2017-04-18T06:59:04.508Z,19.35
2017-04-18T06:59:30.084Z,19.28
2017-04-18T06:59:55.671Z,19.4
2017-04-18T07:00:21.244Z,19.38
2017-04-18T07:00:46.812Z,19.38
2017-04-18T07:01:12.385Z,19.32
2017-04-18T07:01:37.950Z,19.32
2017-04-18T07:02:03.543Z,19.32
2017-04-18T07:02:29.121Z,19.42
2017-04-18T07:02:54.681Z,19.38
2017-04-18T07:03:20.284Z,19.32
2017-04-18T07:03:45.854Z,19.35
2017-04-18T07:04:11.425Z,19.31
2017-04-18T07:04:37.109Z,19.42
2017-04-18T07:05:02.712Z,19.4
2017-04-18T07:05:28.254Z,19.4
2017-04-18T07:05:53.811Z,19.28
2017-04-18T07:06:19.367Z,19.32
2017-04-18T07:06:44.937Z,19.4
2017-04-18T07:07:10.608Z,19.39
2017-04-18T07:07:36.161Z,19.38
2017-04-18T07:08:01.745Z,19.33
2017-04-18T07:08:27.368Z,19.39
2017-04-18T07:08:53.030Z,19.31
2017-04-18T07:09:18.613Z,19.39
2017-04-18T07:09:44.167Z,19.31
2017-04-18T07:10:09.781Z,19.43
2017-04-18T07:10:35.335Z,19.39
2017-04-18T07:11:00.907Z,19.43
2017-04-18T07:11:26.466Z,19.36
2017-04-18T07:11:52.069Z,19.38
2017-04-18T07:12:17.663Z,19.32
2017-04-18T07:12:43.253Z,19.33
2017-04-18T07:13:08.817Z,19.36
2017-04-18T07:13:34.389Z,19.39
2017-04-18T07:13:59.961Z,19.4
2017-04-18T07:14:25.543Z,19.32
2017-04-18T07:14:51.149Z,19.33
2017-04-18T07:15:16.789Z,19.43
2017-04-18T07:15:42.353Z,19.35
2017-04-18T07:16:07.920Z,19.35
2017-04-18T07:16:33.545Z,19.43
2017-04-18T07:16:59.122Z,19.38
2017-04-18T07:17:24.681Z,19.35
2017-04-18T07:17:50.253Z,19.35
2017-04-18T07:18:15.833Z,19.39
2017-04-18T07:18:41.392Z,19.31
2017-04-18T07:19:06.982Z,19.36
2017-04-18T07:19:32.546Z,19.36
2017-04-18T07:19:58.122Z,19.39
2017-04-18T07:20:23.680Z,19.38
2017-04-18T07:20:49.246Z,19.39
2017-04-18T07:21:14.823Z,19.36
2017-04-18T07:21:40.392Z,19.38
2017-04-18T07:22:05.949Z,19.4
2017-04-18T07:22:31.511Z,19.38
2017-04-18T07:22:57.073Z,19.33
2017-04-18T07:23:22.638Z,19.33
2017-04-18T07:23:48.312Z,19.33
2017-04-18T07:24:46.764Z,19.42
2017-04-18T07:25:12.317Z,19.32
2017-04-18T07:25:37.878Z,19.32
2017-04-18T07:26:03.452Z,19.32
2017-04-18T07:26:29.003Z,19.36
2017-04-18T07:26:54.573Z,19.4
2017-04-18T07:27:20.166Z,19.33
2017-04-18T07:27:45.733Z,19.43
2017-04-18T07:28:11.300Z,19.42
2017-04-18T07:28:36.874Z,19.38
2017-04-18T07:29:02.433Z,19.4
2017-04-18T07:29:28.009Z,19.35
2017-04-18T07:29:53.573Z,19.38
2017-04-18T07:30:19.231Z,19.42
2017-04-18T07:30:44.810Z,19.36
2017-04-18T07:31:10.381Z,19.39
2017-04-18T07:31:35.967Z,19.38
2017-04-18T07:32:01.519Z,19.39
2017-04-18T07:32:27.200Z,19.4
2017-04-18T07:32:52.771Z,19.38
2017-04-18T07:33:18.352Z,19.39
2017-04-18T07:33:43.972Z,19.39
2017-04-18T07:34:09.532Z,19.39
2017-04-18T07:34:35.094Z,19.33
2017-04-18T07:35:00.737Z,19.31
2017-04-18T07:35:26.331Z,19.39
2017-04-18T07:35:51.881Z,19.4
2017-04-18T07:36:17.520Z,19.38
2017-04-18T07:36:43.084Z,19.33
2017-04-18T07:37:08.644Z,19.4
2017-04-18T07:37:34.206Z,19.4
2017-04-18T07:37:59.778Z,19.32
2017-04-18T07:38:25.329Z,19.42
2017-04-18T07:38:50.944Z,19.38
2017-04-18T07:39:16.515Z,19.43
2017-04-18T07:39:42.095Z,19.35
2017-04-18T07:40:07.675Z,19.39
2017-04-18T07:40:33.326Z,19.32
2017-04-18T07:40:58.884Z,19.39
2017-04-18T07:41:24.439Z,19.39
2017-04-18T07:41:50.024Z,19.39
2017-04-18T07:42:15.590Z,19.36
2017-04-18T07:42:41.181Z,19.32
2017-04-18T07:43:06.758Z,19.35
2017-04-18T07:43:32.332Z,19.35
2017-04-18T07:43:57.894Z,19.35
2017-04-18T07:44:23.453Z,19.38
2017-04-18T07:44:49.011Z,19.35
2017-04-18T07:45:14.600Z,19.39
2017-04-18T07:45:40.156Z,19.32
2017-04-18T07:46:05.730Z,19.32
2017-04-18T07:46:31.308Z,19.36
2017-04-18T07:46:56.890Z,19.29
2017-04-18T07:47:22.475Z,19.25
2017-04-18T07:47:48.054Z,19.38
2017-04-18T07:48:13.614Z,19.28
2017-04-18T07:48:39.170Z,19.33
2017-04-18T07:49:04.845Z,19.32
2017-04-18T07:49:30.433Z,19.31
2017-04-18T07:49:56.009Z,19.42
2017-04-18T07:50:21.674Z,19.32
2017-04-18T07:50:47.241Z,19.32
2017-04-18T07:51:12.814Z,19.35
2017-04-18T07:51:38.389Z,19.35
2017-04-18T07:52:03.969Z,19.38
2017-04-18T07:52:29.534Z,19.38
2017-04-18T07:52:55.103Z,19.32
2017-04-18T07:53:20.680Z,19.31
2017-04-18T07:53:46.295Z,19.25
2017-04-18T07:54:11.878Z,19.32
2017-04-18T07:54:37.437Z,19.32
2017-04-18T07:55:03.021Z,19.32
2017-04-18T07:55:28.590Z,19.35
2017-04-18T07:55:54.159Z,19.35
2017-04-18T07:56:19.738Z,19.31
2017-04-18T07:56:45.296Z,19.33
2017-04-18T07:57:10.871Z,19.32
2017-04-18T07:57:36.476Z,19.29
2017-04-18T07:58:02.029Z,19.35
2017-04-18T07:58:27.611Z,19.33
2017-04-18T07:58:53.172Z,19.33
2017-04-18T07:59:18.741Z,19.38
2017-04-18T07:59:44.307Z,19.29
2017-04-18T08:00:09.872Z,19.31
2017-04-18T08:00:35.444Z,19.28
2017-04-18T08:01:01.024Z,19.31
2017-04-18T08:01:26.621Z,19.29
2017-04-18T08:01:52.192Z,19.39
2017-04-18T08:02:17.746Z,19.32
2017-04-18T08:02:43.340Z,19.33
2017-04-18T08:03:08.901Z,19.33
2017-04-18T08:03:34.491Z,19.36
2017-04-18T08:04:00.074Z,19.36
2017-04-18T08:04:25.824Z,19.31
2017-04-18T08:04:51.412Z,19.31
2017-04-18T08:05:16.944Z,19.32
2017-04-18T08:05:42.600Z,19.29
2017-04-18T08:06:08.204Z,19.29
2017-04-18T08:06:33.810Z,19.36
2017-04-18T08:06:59.374Z,19.23
2017-04-18T08:07:24.961Z,19.21
2017-04-18T08:07:50.522Z,19.31
2017-04-18T08:08:16.103Z,19.24
2017-04-18T08:08:41.691Z,19.36
2017-04-18T08:09:07.262Z,19.36
2017-04-18T08:09:32.898Z,19.33
2017-04-18T08:09:58.572Z,19.29
2017-04-18T08:10:24.140Z,19.36
2017-04-18T08:10:49.701Z,19.29
2017-04-18T08:11:15.263Z,19.33
2017-04-18T08:11:40.845Z,19.25
2017-04-18T08:12:06.421Z,19.36
2017-04-18T08:12:32.009Z,19.32
2017-04-18T08:12:57.589Z,19.23
2017-04-18T08:13:23.170Z,19.35
2017-04-18T08:13:48.793Z,19.29
2017-04-18T08:14:14.418Z,19.31
2017-04-18T08:14:39.962Z,19.31
2017-04-18T08:15:05.534Z,19.29
2017-04-18T08:15:31.126Z,19.36
2017-04-18T08:15:56.701Z,19.36
2017-04-18T08:16:22.325Z,19.33
2017-04-18T08:16:47.927Z,19.25
2017-04-18T08:17:13.506Z,19.32
2017-04-18T08:17:39.075Z,19.25
2017-04-18T08:18:04.668Z,19.36
2017-04-18T08:18:30.224Z,19.32
2017-04-18T08:18:55.821Z,19.32
2017-04-18T08:19:21.387Z,19.33
2017-04-18T08:19:46.934Z,19.33
2017-04-18T08:20:12.490Z,19.36
2017-04-18T08:20:38.075Z,19.28
2017-04-18T08:21:03.642Z,19.31
2017-04-18T08:21:29.224Z,19.32
2017-04-18T08:21:54.794Z,19.32
2017-04-18T08:22:20.376Z,19.32
2017-04-18T08:22:45.944Z,19.32
2017-04-18T08:23:11.524Z,19.32
2017-04-18T08:23:37.091Z,19.25
2017-04-18T08:24:02.753Z,19.36
2017-04-18T08:24:28.323Z,19.31
2017-04-18T08:24:53.890Z,19.28
2017-04-18T08:25:19.462Z,19.32
2017-04-18T08:25:45.110Z,19.29
2017-04-18T08:26:10.688Z,19.23
2017-04-18T08:26:36.238Z,19.33
2017-04-18T08:27:01.820Z,19.25
2017-04-18T08:27:27.411Z,19.33
2017-04-18T08:27:52.988Z,19.32
2017-04-18T08:28:18.548Z,19.36
2017-04-18T08:28:44.103Z,19.32
2017-04-18T08:29:09.674Z,19.32
2017-04-18T08:29:35.236Z,19.28
2017-04-18T08:30:00.802Z,19.36
2017-04-18T08:30:26.487Z,19.29
2017-04-18T08:30:52.150Z,19.28
2017-04-18T08:31:17.721Z,19.32
2017-04-18T08:31:43.378Z,19.39
2017-04-18T08:32:08.998Z,19.29
2017-04-18T08:32:34.554Z,19.28
2017-04-18T08:33:00.145Z,19.36
2017-04-18T08:33:25.707Z,19.32
2017-04-18T08:33:51.310Z,19.35
2017-04-18T08:34:16.886Z,19.32